createdAt,value
2023-02-03T00:01:03.748Z,5.9
2023-02-03T00:04:05.707Z,5.8
2023-02-03T00:07:07.635Z,4.9
2023-02-03T00:10:09.595Z,6.2
2023-02-03T00:13:11.554Z,5.7
2023-02-03T00:16:13.604Z,2.8
2023-02-03T00:19:17.375Z,5.4
2023-02-03T00:22:17.467Z,4.5
2023-02-03T00:25:19.409Z,6.4
2023-02-03T00:28:21.394Z,4.3
2023-02-03T00:31:23.453Z,5.3
2023-02-03T00:34:25.281Z,5.2
2023-02-03T00:37:27.260Z,4.4
2023-02-03T00:40:29.210Z,6.2
2023-02-03T00:43:31.174Z,6.1
2023-02-03T00:46:33.144Z,3.1
2023-02-03T00:49:35.144Z,4.5
2023-02-03T00:52:37.106Z,3.5
2023-02-03T00:55:39.217Z,5.1
2023-02-03T00:58:41.035Z,4
2023-02-03T01:01:43.000Z,5.8
2023-02-03T01:04:44.971Z,3.6
2023-02-03T01:07:46.905Z,4.7
2023-02-03T01:10:48.837Z,4.8
2023-02-03T01:13:50.810Z,5.1
2023-02-03T01:16:52.791Z,6.3
2023-02-03T01:19:54.711Z,3.8
2023-02-03T01:22:56.675Z,4.6
2023-02-03T01:25:58.653Z,3.6
2023-02-03T01:29:00.625Z,5.3
2023-02-03T01:32:02.611Z,6
2023-02-03T01:35:04.547Z,5
2023-02-03T01:38:06.498Z,6.2
2023-02-03T01:41:08.500Z,5.5
2023-02-03T01:44:10.427Z,4.3
2023-02-03T01:47:12.392Z,2.2
2023-02-03T01:50:14.381Z,3
2023-02-03T01:53:16.394Z,3.1
2023-02-03T01:56:18.306Z,3.2
2023-02-03T01:59:20.265Z,2.4
2023-02-03T02:02:22.241Z,2.6
2023-02-03T02:05:24.170Z,2.4
2023-02-03T02:08:26.141Z,2.5
2023-02-03T02:11:28.085Z,1.8
2023-02-03T02:14:30.075Z,4.5
2023-02-03T02:17:32.056Z,3.1
2023-02-03T02:20:34.011Z,2.5
2023-02-03T02:23:35.964Z,2.5
2023-02-03T02:26:37.896Z,3.8
2023-02-03T02:29:39.897Z,3.6
2023-02-03T02:32:41.855Z,4.1
2023-02-03T02:35:43.787Z,3.8
2023-02-03T02:38:45.756Z,2.6
2023-02-03T02:41:47.698Z,2.7
2023-02-03T02:44:49.650Z,2.5
2023-02-03T02:47:51.612Z,2.3
2023-02-03T02:50:53.577Z,1.8
2023-02-03T02:53:55.567Z,3.8
2023-02-03T02:56:57.490Z,2.2
2023-02-03T02:59:59.469Z,3.6
2023-02-03T03:03:01.440Z,3.3
2023-02-03T03:06:03.406Z,2.1
2023-02-03T03:09:05.372Z,2.5
2023-02-03T03:12:07.341Z,1.3
2023-02-03T03:15:09.303Z,2.8
2023-02-03T03:18:11.249Z,1.8
2023-02-03T03:21:13.270Z,1.7
2023-02-03T03:24:15.175Z,1.9
2023-02-03T03:27:17.130Z,0.7
2023-02-03T03:30:19.113Z,1.7
2023-02-03T03:33:21.089Z,1.6
2023-02-03T03:36:23.019Z,2.4
2023-02-03T03:39:24.969Z,1.5
2023-02-03T03:42:26.928Z,3.4
2023-02-03T03:45:28.913Z,3.1
2023-02-03T03:48:30.834Z,2.5
2023-02-03T03:51:32.833Z,1.1
2023-02-03T03:54:34.754Z,1.5
2023-02-03T03:57:36.729Z,2.5
2023-02-03T04:00:38.687Z,1.8
2023-02-03T04:03:40.665Z,2
2023-02-03T04:06:42.618Z,1.9
2023-02-03T04:09:44.608Z,1.7
2023-02-03T04:12:46.530Z,3
2023-02-03T04:15:48.576Z,2.1
2023-02-03T04:18:50.451Z,3
2023-02-03T04:21:52.403Z,1.9
2023-02-03T04:24:54.363Z,1.7
2023-02-03T04:27:56.465Z,0.9
2023-02-03T04:30:58.354Z,1.3
2023-02-03T04:34:00.295Z,1.5
2023-02-03T04:37:02.244Z,2.7
2023-02-03T04:40:04.190Z,1
2023-02-03T04:43:06.171Z,2.1
2023-02-03T04:46:08.142Z,2.2
2023-02-03T04:49:10.079Z,1.8
2023-02-03T04:52:12.023Z,1.8
2023-02-03T04:55:14.008Z,2.1
2023-02-03T04:58:16.138Z,1.8
2023-02-03T05:01:17.999Z,3.1
2023-02-03T05:04:19.926Z,3.2
2023-02-03T05:07:21.863Z,2.3
2023-02-03T05:10:23.813Z,3.2
2023-02-03T05:13:25.834Z,2
2023-02-03T05:16:27.823Z,2.7
2023-02-03T05:19:29.877Z,1.7
2023-02-03T05:22:31.701Z,2.3
2023-02-03T05:25:33.622Z,1.8
2023-02-03T05:28:35.570Z,1.9
2023-02-03T05:31:37.568Z,2.9
2023-02-03T05:34:41.364Z,2.5
2023-02-03T05:37:41.445Z,1.8
2023-02-03T05:40:43.382Z,4
2023-02-03T05:43:45.340Z,2.5
2023-02-03T05:46:47.310Z,3
2023-02-03T05:49:49.304Z,2.6
2023-02-03T05:52:51.236Z,3
2023-02-03T05:55:53.198Z,4.3
2023-02-03T05:58:55.153Z,3.6
2023-02-03T06:01:57.091Z,2
2023-02-03T06:04:59.063Z,1.8
2023-02-03T06:08:01.042Z,2.7
2023-02-03T06:11:02.992Z,1.2
2023-02-03T06:14:05.027Z,1.8
2023-02-03T06:17:06.902Z,3.3
2023-02-03T06:20:08.878Z,1.7
2023-02-03T06:23:10.814Z,3.1
2023-02-03T06:26:12.797Z,3.1
2023-02-03T06:29:14.759Z,2.3
2023-02-03T06:32:16.715Z,2.7
2023-02-03T06:35:18.659Z,3.2
2023-02-03T06:38:20.615Z,3.8
2023-02-03T06:41:22.566Z,2
2023-02-03T06:44:24.543Z,4
2023-02-03T06:47:26.477Z,3.6
2023-02-03T06:50:28.805Z,2.5
2023-02-03T06:53:30.417Z,3.4
2023-02-03T06:56:32.425Z,2.4
2023-02-03T06:59:34.350Z,2.2
2023-02-03T07:02:36.331Z,5.4
2023-02-03T07:05:38.263Z,2.5
2023-02-03T07:08:40.265Z,3
2023-02-03T07:11:42.196Z,3.6
2023-02-03T07:14:44.136Z,2.7
2023-02-03T07:17:46.117Z,3.2
2023-02-03T07:20:48.080Z,4
2023-02-03T07:23:50.103Z,3
2023-02-03T07:26:51.976Z,3.1
2023-02-03T07:29:53.946Z,3
2023-02-03T07:32:55.887Z,2.1
2023-02-03T07:35:57.837Z,4
2023-02-03T07:38:59.825Z,2.2
2023-02-03T07:42:01.772Z,1.9
2023-02-03T07:45:03.722Z,3.5
2023-02-03T07:48:05.670Z,3.1
2023-02-03T07:51:07.640Z,6.7
2023-02-03T07:54:09.634Z,2.4
2023-02-03T07:57:11.555Z,4.3
2023-02-03T08:00:13.557Z,3.6
2023-02-03T08:03:15.500Z,3.7
2023-02-03T08:06:17.462Z,1.5
2023-02-03T08:09:19.393Z,1.9
2023-02-03T08:12:21.377Z,2.4
2023-02-03T08:15:23.423Z,3.3
2023-02-03T08:18:25.342Z,3.4
2023-02-03T08:21:27.242Z,1.5
2023-02-03T08:24:29.199Z,2.7
2023-02-03T08:27:31.170Z,2.5
2023-02-03T08:30:33.175Z,2.4
2023-02-03T08:33:35.128Z,2.2
2023-02-03T08:36:37.100Z,2
2023-02-03T08:39:39.067Z,1.7
2023-02-03T08:42:41.005Z,2.6
2023-02-03T08:45:43.028Z,2.4
2023-02-03T08:48:44.950Z,2.8
2023-02-03T08:51:46.891Z,3.6
2023-02-03T08:54:48.891Z,2.4
2023-02-03T08:57:50.805Z,3.6
2023-02-03T09:00:52.791Z,2.2
2023-02-03T09:03:54.729Z,2.4
2023-02-03T09:06:56.688Z,3.3
2023-02-03T09:09:58.656Z,2.3
2023-02-03T09:13:00.656Z,3.2
2023-02-03T09:16:02.573Z,2.2
2023-02-03T09:19:04.515Z,3.5
2023-02-03T09:22:06.486Z,2.8
2023-02-03T09:25:08.443Z,2.7
2023-02-03T09:28:10.430Z,2.6
2023-02-03T09:31:12.383Z,2.3
2023-02-03T09:34:14.362Z,3.3
2023-02-03T09:37:16.311Z,2.2
2023-02-03T09:40:18.293Z,3.4
2023-02-03T09:43:20.238Z,3.8
2023-02-03T09:46:22.292Z,2.7
2023-02-03T09:49:24.155Z,1.8
2023-02-03T09:52:26.113Z,3.5
2023-02-03T09:55:28.118Z,5
2023-02-03T09:58:30.105Z,4.4
2023-02-03T10:01:32.062Z,4.2
2023-02-03T10:04:33.996Z,2.8
2023-02-03T10:07:35.948Z,3.7
2023-02-03T10:10:37.910Z,2.1
2023-02-03T10:13:39.848Z,2.3
2023-02-03T10:16:41.829Z,2.7
2023-02-03T10:19:43.780Z,2.1
2023-02-03T10:22:45.728Z,2.6
2023-02-03T10:25:47.726Z,2.9
2023-02-03T10:28:49.682Z,3.5
2023-02-03T10:31:51.751Z,4.4
2023-02-03T10:34:53.601Z,3.2
2023-02-03T10:37:55.560Z,2.7
2023-02-03T10:40:57.550Z,2.8
2023-02-03T10:43:59.468Z,3
2023-02-03T10:47:01.424Z,4.2
2023-02-03T10:50:03.469Z,2.5
2023-02-03T10:53:05.373Z,4.4
2023-02-03T10:56:07.323Z,2.9
2023-02-03T10:59:09.287Z,3.2
2023-02-03T11:02:11.255Z,2.5
2023-02-03T11:05:13.180Z,2.5
2023-02-03T11:08:15.165Z,3.2
2023-02-03T11:11:17.135Z,3.8
2023-02-03T11:14:19.093Z,4.7
2023-02-03T11:17:21.072Z,2.7
2023-02-03T11:20:23.027Z,3.2
2023-02-03T11:23:24.942Z,3.1
2023-02-03T11:26:26.906Z,1.5
2023-02-03T11:29:28.872Z,1.9
2023-02-03T11:32:30.819Z,2.3
2023-02-03T11:35:32.762Z,2.6
2023-02-03T11:38:34.754Z,3.6
2023-02-03T11:41:36.703Z,2.9
2023-02-03T11:44:38.676Z,2.4
2023-02-03T11:47:40.670Z,2.3
2023-02-03T11:50:42.627Z,2.8
2023-02-03T11:53:56.116Z,3.6
2023-02-03T11:56:46.509Z,3.8
2023-02-03T11:59:48.472Z,2.1
2023-02-03T12:02:50.486Z,2.5
2023-02-03T12:05:52.406Z,2
2023-02-03T12:08:54.384Z,2.2
2023-02-03T12:11:56.382Z,3
2023-02-03T12:14:58.289Z,1.4
2023-02-03T12:18:00.289Z,3.1
2023-02-03T12:21:02.215Z,2.1
2023-02-03T12:24:04.177Z,1.8
2023-02-03T12:27:06.123Z,1.7
2023-02-03T12:30:08.114Z,2.3
2023-02-03T12:33:10.084Z,1.8
2023-02-03T12:36:12.018Z,2.1
2023-02-03T12:39:13.989Z,3.5
2023-02-03T12:42:15.962Z,3.2
2023-02-03T12:45:17.900Z,1.2
2023-02-03T12:48:20.214Z,2.8
2023-02-03T12:51:21.864Z,2.8
2023-02-03T12:54:23.828Z,2.5
2023-02-03T12:57:25.780Z,2.6
2023-02-03T13:00:28.076Z,2.6
2023-02-03T13:03:29.707Z,1.9
2023-02-03T13:06:31.701Z,2.3
2023-02-03T13:09:33.659Z,2.2
2023-02-03T13:12:35.712Z,3.1
2023-02-03T13:15:37.596Z,2.4
2023-02-03T13:18:39.501Z,1.4
2023-02-03T13:21:41.477Z,1.3
2023-02-03T13:24:43.419Z,1.5
2023-02-03T13:27:45.415Z,2.2
2023-02-03T13:30:47.520Z,2.7
2023-02-03T13:33:49.359Z,1.6
2023-02-03T13:36:51.341Z,1.9
2023-02-03T13:39:53.285Z,3.7
2023-02-03T13:42:55.265Z,1.7
2023-02-03T13:45:57.264Z,1.5
2023-02-03T13:48:59.200Z,1.2
2023-02-03T13:52:01.140Z,1.8
2023-02-03T13:55:03.099Z,2.4
2023-02-03T13:58:05.064Z,1.4
2023-02-03T14:01:07.048Z,1.4
2023-02-03T14:04:09.180Z,2.1
2023-02-03T14:07:10.962Z,1.4
2023-02-03T14:10:12.959Z,1.7
2023-02-03T14:13:14.904Z,1.4
2023-02-03T14:16:16.884Z,1.3
2023-02-03T14:19:18.843Z,2.9
2023-02-03T14:22:20.879Z,4
2023-02-03T14:25:22.797Z,1.2
2023-02-03T14:28:24.750Z,1.3
2023-02-03T14:31:26.782Z,2.1
2023-02-03T14:34:28.647Z,2.8
2023-02-03T14:37:30.611Z,3.9
2023-02-03T14:40:32.603Z,1.9
2023-02-03T14:43:34.569Z,1.2
2023-02-03T14:46:36.582Z,2.5
2023-02-03T14:49:38.459Z,1.5
2023-02-03T14:52:40.397Z,1.4
2023-02-03T14:55:42.345Z,2.8
2023-02-03T14:58:44.321Z,1.2
2023-02-03T15:01:46.364Z,1.8
2023-02-03T15:04:48.269Z,1.5
2023-02-03T15:07:50.175Z,2.9
2023-02-03T15:10:52.178Z,1.7
2023-02-03T15:13:54.123Z,2.2
2023-02-03T15:16:56.108Z,1.7
2023-02-03T15:19:58.046Z,1.3
2023-02-03T15:22:59.995Z,2.8
2023-02-03T15:26:01.946Z,1.6
2023-02-03T15:29:03.895Z,4.4
2023-02-03T15:32:05.904Z,1.9
2023-02-03T15:35:07.796Z,1.7
2023-02-03T15:38:09.767Z,1.9
2023-02-03T15:41:11.759Z,1.6
2023-02-03T15:44:13.717Z,2.1
2023-02-03T15:47:15.631Z,1.7
2023-02-03T15:50:17.603Z,1.3
2023-02-03T15:53:19.559Z,1.1
2023-02-03T15:56:21.559Z,2.5
2023-02-03T15:59:23.480Z,1.8
2023-02-03T16:02:25.462Z,1.3
2023-02-03T16:05:27.821Z,2.6
2023-02-03T16:08:29.417Z,2.6
2023-02-03T16:11:31.348Z,2.1
2023-02-03T16:14:33.294Z,2.1
2023-02-03T16:17:35.257Z,1.9
2023-02-03T16:20:37.237Z,1.8
2023-02-03T16:23:39.186Z,1.5
2023-02-03T16:26:41.177Z,1.6
2023-02-03T16:29:43.115Z,2.8
2023-02-03T16:32:45.116Z,2.5
2023-02-03T16:35:47.064Z,2.4
2023-02-03T16:38:49.002Z,4
2023-02-03T16:41:50.965Z,2.4
2023-02-03T16:44:52.969Z,2
2023-02-03T16:47:54.927Z,3.8
2023-02-03T16:50:59.268Z,2.2
2023-02-03T16:53:58.825Z,4
2023-02-03T16:57:00.781Z,2.9
2023-02-03T17:00:02.777Z,3.3
2023-02-03T17:03:04.689Z,5
2023-02-03T17:06:06.646Z,3.3
2023-02-03T17:09:08.630Z,4.4
2023-02-03T17:12:10.565Z,3.5
2023-02-03T17:15:12.561Z,2.3
2023-02-03T17:18:14.476Z,2.7
2023-02-03T17:21:16.448Z,3.4
2023-02-03T17:24:18.429Z,3.3
2023-02-03T17:27:20.368Z,3.2
2023-02-03T17:30:22.563Z,3.5
2023-02-03T17:33:24.308Z,4
2023-02-03T17:36:26.295Z,5.7
2023-02-03T17:54:38.040Z,5
2023-02-03T17:57:39.978Z,6.8
2023-02-03T18:00:41.921Z,10
2023-02-03T18:03:43.878Z,9.1
2023-02-03T18:06:45.848Z,12.6
2023-02-03T18:09:47.795Z,18.7
2023-02-03T18:12:49.771Z,16.6
2023-02-03T18:15:51.719Z,15.5
2023-02-03T18:18:53.743Z,10.5
2023-02-03T18:21:55.739Z,12.7
2023-02-03T18:24:57.688Z,8.8
2023-02-03T18:27:59.693Z,12.5
2023-02-03T18:31:01.691Z,11.3
2023-02-03T18:34:03.578Z,13.4
2023-02-03T18:37:05.508Z,14.6
2023-02-03T18:40:07.446Z,12.2
2023-02-03T18:43:09.455Z,17.9
2023-02-03T18:46:11.405Z,12.4
2023-02-03T18:49:13.374Z,13.3
2023-02-03T18:52:15.361Z,11.6
2023-02-03T18:55:17.342Z,14.3
2023-02-03T18:58:19.284Z,15.7
2023-02-03T19:01:21.302Z,18.1
2023-02-03T19:04:23.260Z,13.9
2023-02-03T19:07:25.205Z,18.5
2023-02-03T19:10:27.513Z,20.6
2023-02-03T19:13:29.141Z,13.9
2023-02-03T19:16:31.061Z,12.2
2023-02-03T19:19:33.038Z,17
2023-02-03T19:22:34.978Z,13.9
2023-02-03T19:25:36.937Z,13.5
2023-02-03T19:28:39.127Z,14.6
2023-02-03T19:31:41.041Z,12.8
2023-02-03T19:34:42.875Z,8.9
2023-02-03T19:37:44.839Z,11.2
2023-02-03T19:40:46.759Z,15
2023-02-03T19:43:48.705Z,14.1
2023-02-03T19:46:50.739Z,19.3
2023-02-03T19:49:52.723Z,11.6
2023-02-03T19:52:54.656Z,13.9
2023-02-03T19:55:56.674Z,20.5
2023-02-03T19:58:58.620Z,22.5
2023-02-03T20:02:09.526Z,14.6
2023-02-03T20:05:02.652Z,13.2
2023-02-03T20:08:04.728Z,12.2
2023-02-03T20:11:06.707Z,18.1
2023-02-03T20:14:08.615Z,13.3
2023-02-03T20:17:10.557Z,11.9
2023-02-03T20:20:12.525Z,10.1
2023-02-03T20:23:14.478Z,14.4
2023-02-03T20:26:16.455Z,13.6
2023-02-03T20:29:18.409Z,10.6
2023-02-03T20:32:20.354Z,17.2
2023-02-03T20:35:22.315Z,17.9
2023-02-03T20:38:24.297Z,16.1
2023-02-03T20:41:26.216Z,17.2
2023-02-03T20:44:28.190Z,17.4
2023-02-03T20:47:30.181Z,14.9
2023-02-03T20:50:41.886Z,15
2023-02-03T20:53:34.078Z,14.2
2023-02-03T20:56:36.067Z,14.3
2023-02-03T20:59:38.014Z,11.6
2023-02-03T21:02:39.945Z,16.9
2023-02-03T21:05:41.943Z,16.5
2023-02-03T21:08:43.887Z,14.7
2023-02-03T21:11:45.811Z,14
2023-02-03T21:14:47.780Z,13.6
2023-02-03T21:17:49.735Z,12.8
2023-02-03T21:20:51.690Z,16
2023-02-03T21:23:53.699Z,20.6
2023-02-03T21:26:55.617Z,18.7
2023-02-03T21:29:57.602Z,14.8
2023-02-03T21:32:59.522Z,18.8
2023-02-03T21:36:01.471Z,11.5
2023-02-03T21:39:03.432Z,14.2
2023-02-03T21:42:05.396Z,14.5
2023-02-03T21:45:07.366Z,20
2023-02-03T21:48:09.349Z,15.8
2023-02-03T21:51:11.262Z,13.3
2023-02-03T21:54:13.217Z,16.1
2023-02-03T21:57:15.168Z,20
2023-02-03T22:00:17.160Z,13.8
2023-02-03T22:03:19.114Z,14.4
2023-02-03T22:06:21.077Z,13.4
2023-02-03T22:09:23.048Z,17.8
2023-02-03T22:12:25.036Z,13.1
2023-02-03T22:15:26.981Z,18.9
2023-02-03T22:18:28.944Z,13.8
2023-02-03T22:21:30.988Z,18.7
2023-02-03T22:24:32.852Z,13.2
2023-02-03T22:27:34.804Z,16.4
2023-02-03T22:30:36.849Z,13.9
2023-02-03T22:33:38.699Z,12.1
2023-02-03T22:36:40.653Z,17.8
2023-02-03T22:39:42.666Z,11.7
2023-02-03T22:42:44.624Z,12.1
2023-02-03T22:45:46.631Z,16.2
2023-02-03T22:48:48.529Z,10.2
2023-02-03T22:51:50.519Z,20
2023-02-03T22:54:52.481Z,10.9
2023-02-03T22:57:54.446Z,10.2
2023-02-03T23:00:56.424Z,14.7
2023-02-03T23:03:58.342Z,15
2023-02-03T23:07:00.335Z,17.2
2023-02-03T23:10:02.257Z,12.8
2023-02-03T23:13:04.209Z,12.2
2023-02-03T23:16:06.211Z,11.8
2023-02-03T23:19:08.173Z,11.9
2023-02-03T23:22:10.110Z,6.7
2023-02-03T23:25:12.107Z,9.9
2023-02-03T23:28:14.158Z,13.6
2023-02-03T23:31:16.060Z,14
2023-02-03T23:34:17.934Z,10.2
2023-02-03T23:37:19.886Z,6.7
2023-02-03T23:40:21.855Z,11.7
2023-02-03T23:43:23.823Z,9.9
2023-02-03T23:46:25.841Z,13.6
2023-02-03T23:49:27.760Z,6.9
2023-02-03T23:52:29.672Z,8.7
2023-02-03T23:55:31.654Z,8
2023-02-03T23:58:33.628Z,13.4
